createdAt,value
2019-04-26T00:04:49.321Z,72.90
2019-04-26T00:09:55.956Z,74.00
2019-04-26T00:15:21.234Z,74.50
2019-04-26T00:20:26.732Z,72.90
2019-04-26T00:25:31.895Z,73.20
2019-04-26T00:30:36.875Z,73.90
2019-04-26T00:35:47.879Z,73.10
2019-04-26T00:40:49.914Z,73.30
2019-04-26T00:45:56.655Z,72.30
2019-04-26T00:51:04.064Z,74.40
2019-04-26T00:56:10.063Z,73.10
2019-04-26T01:01:16.819Z,79.40
2019-04-26T01:06:23.454Z,73.90
2019-04-26T01:11:28.478Z,80.60
2019-04-26T01:16:33.596Z,76.60
2019-04-26T01:21:41.656Z,75.20
2019-04-26T01:26:49.056Z,75.00
2019-04-26T01:31:59.928Z,77.50
2019-04-26T01:37:05.219Z,74.00
2019-04-26T01:42:12.096Z,82.60
2019-04-26T01:47:17.659Z,73.50
2019-04-26T01:52:24.039Z,74.80
2019-04-26T01:57:31.569Z,73.00
2019-04-26T02:02:57.407Z,76.20
2019-04-26T02:08:02.609Z,73.00
2019-04-26T02:13:07.768Z,72.90
2019-04-26T02:18:12.963Z,75.40
2019-04-26T02:23:35.949Z,72.70
2019-04-26T02:28:41.145Z,72.40
2019-04-26T02:33:46.111Z,73.10
2019-04-26T02:38:53.300Z,73.20
2019-04-26T02:44:01.435Z,72.70
2019-04-26T02:49:11.704Z,72.10
2019-04-26T02:54:27.888Z,72.50
2019-04-26T02:59:40.772Z,73.00
2019-04-26T03:04:48.436Z,74.40
2019-04-26T03:09:54.446Z,75.00
2019-04-26T03:15:13.831Z,72.80
2019-04-26T03:20:20.326Z,72.60
2019-04-26T03:25:35.209Z,82.30
2019-04-26T03:30:53.003Z,77.00
2019-04-26T03:36:14.396Z,73.10
2019-04-26T03:41:41.045Z,73.20
2019-04-26T03:46:52.093Z,74.00
2019-04-26T03:52:18.454Z,72.50
2019-04-26T03:57:44.306Z,74.40
2019-04-26T04:03:11.869Z,72.50
2019-04-26T04:08:22.651Z,72.40
2019-04-26T04:13:50.483Z,78.50
2019-04-26T04:19:01.218Z,78.10
2019-04-26T04:24:09.613Z,81.90
2019-04-26T04:29:42.974Z,71.90
2019-04-26T04:34:47.536Z,72.40
2019-04-26T04:40:29.271Z,85.10
2019-04-26T04:45:59.750Z,76.70
2019-04-26T04:51:23.015Z,79.40
2019-04-26T04:56:46.140Z,82.50
2019-04-26T05:02:07.716Z,88.60
2019-04-26T05:07:30.675Z,91.60
2019-04-26T05:12:38.708Z,92.20
2019-04-26T05:17:58.903Z,91.30
2019-04-26T05:23:18.119Z,90.10
2019-04-26T05:28:42.795Z,88.30
2019-04-26T05:34:13.817Z,84.90
2019-04-26T05:39:27.595Z,84.40
2019-04-26T05:44:43.146Z,84.00
2019-04-26T05:50:36.865Z,78.60
2019-04-26T05:56:21.346Z,74.60
2019-04-26T06:02:01.142Z,72.20
2019-04-26T06:07:25.712Z,67.20
2019-04-26T06:12:37.917Z,69.00
2019-04-26T06:18:11.476Z,70.40
2019-04-26T06:23:25.284Z,70.90
2019-04-26T06:28:56.366Z,71.20
2019-04-26T06:34:06.950Z,68.30
2019-04-26T06:39:22.084Z,68.80
2019-04-26T06:44:31.802Z,69.80
2019-04-26T06:49:59.108Z,67.70
2019-04-26T06:55:14.792Z,68.20
2019-04-26T07:00:23.966Z,65.20
2019-04-26T07:05:32.022Z,63.20
2019-04-26T07:10:52.262Z,59.30
2019-04-26T07:16:22.842Z,58.30
2019-04-26T07:22:16.236Z,56.80
2019-04-26T07:27:39.210Z,55.60
2019-04-26T07:32:53.028Z,56.60
2019-04-26T07:38:28.856Z,54.40
2019-04-26T07:43:41.586Z,54.20
2019-04-26T07:49:10.183Z,50.90
2019-04-26T07:54:33.006Z,52.10
2019-04-26T08:00:08.796Z,50.70
2019-04-26T08:05:22.276Z,48.50
2019-04-26T08:10:40.727Z,49.10
2019-04-26T08:15:56.427Z,48.70
2019-04-26T08:21:10.026Z,47.40
2019-04-26T08:26:13.875Z,46.10
2019-04-26T08:31:24.346Z,44.80
2019-04-26T08:36:32.733Z,44.20
2019-04-26T08:41:40.241Z,43.30
2019-04-26T08:46:51.765Z,41.10
2019-04-26T08:51:59.729Z,41.20
2019-04-26T08:57:08.601Z,39.80
2019-04-26T09:02:24.134Z,39.70
2019-04-26T09:07:36.283Z,40.10
2019-04-26T09:12:42.601Z,39.20
2019-04-26T09:17:47.801Z,38.30
2019-04-26T09:23:06.796Z,38.40
2019-04-26T09:28:19.148Z,39.00
2019-04-26T09:33:41.031Z,37.70
2019-04-26T09:38:46.087Z,37.90
2019-04-26T09:43:54.922Z,37.40
2019-04-26T09:49:03.016Z,36.30
2019-04-26T09:54:08.964Z,36.50
2019-04-26T09:59:13.999Z,35.60
2019-04-26T10:04:19.147Z,34.90
2019-04-26T10:09:26.016Z,34.60
2019-04-26T10:14:39.134Z,35.90
2019-04-26T10:19:45.809Z,32.30
2019-04-26T10:24:50.995Z,32.80
2019-04-26T10:30:07.180Z,33.60
2019-04-26T10:35:02.835Z,32.50
2019-04-26T10:40:09.234Z,33.50
2019-04-26T10:45:16.344Z,32.10
2019-04-26T10:50:22.082Z,30.40
2019-04-26T10:55:28.887Z,32.50
2019-04-26T11:00:38.595Z,30.20
2019-04-26T11:05:44.859Z,31.30
2019-04-26T11:10:50.186Z,29.60
2019-04-26T11:15:55.281Z,31.20
2019-04-26T11:21:00.326Z,29.90
2019-04-26T11:26:05.626Z,30.00
2019-04-26T11:31:10.637Z,29.70
2019-04-26T11:36:16.683Z,29.40
2019-04-26T11:41:21.825Z,29.20
2019-04-26T11:46:29.134Z,29.80
2019-04-26T11:51:33.467Z,29.30
2019-04-26T11:56:38.834Z,28.60
2019-04-26T12:01:44.254Z,28.50
2019-04-26T12:06:56.864Z,28.90
2019-04-26T12:12:04.947Z,27.60
2019-04-26T12:17:09.691Z,28.20
2019-04-26T12:22:14.810Z,27.30
2019-04-26T12:27:19.845Z,27.60
2019-04-26T12:32:24.912Z,28.80
2019-04-26T12:37:31.034Z,30.50
2019-04-26T12:42:36.123Z,30.60
2019-04-26T12:47:45.658Z,29.30
2019-04-26T12:52:51.524Z,28.40
2019-04-26T12:57:57.575Z,31.10
2019-04-26T13:03:04.342Z,27.70
2019-04-26T13:08:09.432Z,26.10
2019-04-26T13:13:16.192Z,27.00
2019-04-26T13:18:21.338Z,27.40
2019-04-26T13:23:29.957Z,28.60
2019-04-26T13:28:33.083Z,24.50
2019-04-26T13:33:38.131Z,23.80
2019-04-26T13:38:44.999Z,24.20
2019-04-26T13:43:49.911Z,25.50
2019-04-26T13:49:14.353Z,27.30
2019-04-26T13:54:21.175Z,28.20
2019-04-26T13:59:28.145Z,27.60
2019-04-26T14:04:32.646Z,28.90
2019-04-26T14:09:37.611Z,30.30
2019-04-26T14:14:42.624Z,28.70
2019-04-26T14:19:49.455Z,29.80
2019-04-26T14:24:57.051Z,27.00
2019-04-26T14:30:06.480Z,27.10
2019-04-26T14:35:11.528Z,30.60
2019-04-26T14:40:17.715Z,26.80
2019-04-26T14:45:24.165Z,29.20
2019-04-26T14:50:32.060Z,27.00
2019-04-26T14:55:37.207Z,24.00
2019-04-26T15:00:44.076Z,26.90
2019-04-26T15:05:59.810Z,26.60
2019-04-26T15:11:04.902Z,26.20
2019-04-26T15:16:11.818Z,30.30
2019-04-26T15:21:16.552Z,25.80
2019-04-26T15:26:24.405Z,25.50
2019-04-26T15:31:28.451Z,28.60
2019-04-26T15:36:33.459Z,29.60
2019-04-26T15:41:40.219Z,27.20
2019-04-26T15:46:48.633Z,27.30
2019-04-26T15:51:56.376Z,28.90
2019-04-26T15:57:02.110Z,29.60
2019-04-26T16:02:07.742Z,31.00
2019-04-26T16:07:16.677Z,32.80
2019-04-26T16:12:20.316Z,31.40
2019-04-26T16:17:26.156Z,30.60
2019-04-26T16:22:33.153Z,31.90
2019-04-26T16:27:37.995Z,33.00
2019-04-26T16:32:54.094Z,35.10
2019-04-26T16:38:00.126Z,34.20
2019-04-26T16:43:05.430Z,36.80
2019-04-26T16:48:10.888Z,38.30
2019-04-26T16:53:37.846Z,39.00
2019-04-26T16:58:24.655Z,41.20
2019-04-26T17:03:29.246Z,38.60
2019-04-26T17:08:34.350Z,41.50
2019-04-26T17:13:49.189Z,41.90
2019-04-26T17:18:46.219Z,43.10
2019-04-26T17:24:05.872Z,43.80
2019-04-26T17:29:08.942Z,46.30
2019-04-26T17:34:14.231Z,47.20
2019-04-26T17:39:19.351Z,49.10
2019-04-26T17:44:26.414Z,49.00
2019-04-26T17:49:34.531Z,51.20
2019-04-26T17:54:48.978Z,52.30
2019-04-26T17:59:47.760Z,52.90
2019-04-26T18:04:58.893Z,54.00
2019-04-26T18:10:04.355Z,54.00
2019-04-26T18:15:09.554Z,53.50
2019-04-26T18:20:29.621Z,54.10
2019-04-26T18:25:34.751Z,53.60
2019-04-26T18:30:40.305Z,53.60
2019-04-26T18:35:49.326Z,54.50
2019-04-26T18:41:00.978Z,55.40
2019-04-26T18:46:03.434Z,54.20
2019-04-26T18:51:11.151Z,54.60
2019-04-26T18:56:15.308Z,56.40
2019-04-26T19:01:20.358Z,56.30
2019-04-26T19:06:31.610Z,56.50
2019-04-26T19:11:34.209Z,56.20
2019-04-26T19:16:59.284Z,55.60
2019-04-26T19:22:09.387Z,56.40
2019-04-26T19:27:15.763Z,57.20
2019-04-26T19:32:21.857Z,57.80
2019-04-26T19:37:30.435Z,57.40
2019-04-26T19:42:34.367Z,57.00
2019-04-26T19:47:43.975Z,57.00
2019-04-26T19:52:49.445Z,57.00
2019-04-26T19:58:05.187Z,57.40
2019-04-26T20:03:13.471Z,56.50
2019-04-26T20:08:17.183Z,56.60
2019-04-26T20:13:22.306Z,56.40
2019-04-26T20:18:27.418Z,56.00
2019-04-26T20:23:33.811Z,56.50
2019-04-26T20:28:38.967Z,57.70
2019-04-26T20:33:44.083Z,57.50
2019-04-26T20:38:49.190Z,58.20
2019-04-26T20:44:04.965Z,57.40
2019-04-26T20:49:01.432Z,58.40
2019-04-26T20:54:10.718Z,59.30
2019-04-26T20:59:16.631Z,65.20
2019-04-26T21:04:34.891Z,61.40
2019-04-26T21:09:28.954Z,60.50
2019-04-26T21:14:37.324Z,59.90
2019-04-26T21:19:41.711Z,58.70
2019-04-26T21:25:04.726Z,59.30
2019-04-26T21:30:13.517Z,60.80
2019-04-26T21:35:25.028Z,63.10
2019-04-26T21:40:31.583Z,64.40
2019-04-26T21:45:36.698Z,60.30
2019-04-26T21:50:44.362Z,66.10
2019-04-26T21:55:49.536Z,60.70
2019-04-26T22:01:11.065Z,61.00
2019-04-26T22:06:20.007Z,59.40
2019-04-26T22:11:24.048Z,58.90
2019-04-26T22:16:37.970Z,60.20
2019-04-26T22:22:05.784Z,58.10
2019-04-26T22:27:07.239Z,57.50
2019-04-26T22:32:15.936Z,58.10
2019-04-26T22:37:29.629Z,57.90
2019-04-26T22:42:27.326Z,60.70
2019-04-26T22:47:40.689Z,71.60
2019-04-26T22:52:44.492Z,63.50
2019-04-26T22:57:49.611Z,65.10
2019-04-26T23:02:57.999Z,75.00
2019-04-26T23:08:01.096Z,64.00
2019-04-26T23:13:08.177Z,71.00
2019-04-26T23:18:17.682Z,69.70
2019-04-26T23:23:23.655Z,74.40
2019-04-26T23:28:34.062Z,69.60
2019-04-26T23:33:35.247Z,70.00
2019-04-26T23:38:40.282Z,64.30
2019-04-26T23:43:45.271Z,67.40
2019-04-26T23:48:50.266Z,68.90
2019-04-26T23:53:57.797Z,70.40
2019-04-26T23:59:03.580Z,78.70
